Time;durP1;ratioP1;P1;durP2;ratioP2;P2;SDS_P1;SDS_P2;PMS_P1;PMS_P2;Temp;Humidity;BMP_temperature;BMP_pressure;BME280_temperature;BME280_humidity;BME280_pressure;Samples;Min_cycle;Max_cycle;Signal;HPM_P1;HPM_P2
2021/10/20 00:02:22;;;;;;;14.77;4.80;;;;;;;;;;4898028;29;20557;-90
2021/10/20 00:04:48;;;;;;;8.65;4.07;;;;;;;;;;4897939;29;20040;-89
2021/10/20 00:07:14;;;;;;;5.90;2.72;;;;;;;;;;4876055;29;20450;-89
2021/10/20 00:09:40;;;;;;;5.75;2.97;;;;;;;;;;4895473;29;20116;-89
2021/10/20 00:12:06;;;;;;;4.40;3.25;;;;;;;;;;4886355;29;20041;-89
2021/10/20 00:14:32;;;;;;;6.97;2.97;;;;;;;;;;4881538;29;20035;-91
2021/10/20 00:16:58;;;;;;;7.40;3.05;;;;;;;;;;4898310;29;20144;-90
2021/10/20 00:19:25;;;;;;;10.82;3.80;;;;;;;;;;4881041;29;20024;-88
2021/10/20 00:21:51;;;;;;;9.93;4.13;;;;;;;;;;4897884;29;20462;-91
2021/10/20 00:24:17;;;;;;;5.05;2.88;;;;;;;;;;4898191;29;20029;-88
2021/10/20 00:26:43;;;;;;;6.90;2.85;;;;;;;;;;4881897;29;20472;-89
2021/10/20 00:29:09;;;;;;;6.70;3.33;;;;;;;;;;4890963;29;20096;-89
2021/10/20 00:31:35;;;;;;;4.10;2.60;;;;;;;;;;4895943;29;20439;-88
2021/10/20 00:34:01;;;;;;;6.10;3.22;;;;;;;;;;4906542;29;20029;-90
2021/10/20 00:36:27;;;;;;;8.98;4.93;;;;;;;;;;4899410;29;20017;-89
2021/10/20 00:38:53;;;;;;;9.10;3.38;;;;;;;;;;4897884;29;20044;-89
2021/10/20 00:41:19;;;;;;;5.55;3.67;;;;;;;;;;4888175;29;20037;-89
2021/10/20 00:43:45;;;;;;;8.18;3.25;;;;;;;;;;4890018;29;20082;-89
2021/10/20 00:46:11;;;;;;;18.83;4.82;;;;;;;;;;4897262;29;20024;-89
2021/10/20 00:48:37;;;;;;;6.07;3.13;;;;;;;;;;4880073;29;20395;-90
2021/10/20 00:51:03;;;;;;;4.95;3.05;;;;;;;;;;4897709;29;20032;-89
2021/10/20 00:53:29;;;;;;;5.72;3.38;;;;;;;;;;4864466;29;20061;-89
2021/10/20 00:55:55;;;;;;;4.85;2.47;;;;;;;;;;4891041;29;20607;-90
2021/10/20 00:58:22;;;;;;;5.65;3.70;;;;;;;;;;4883115;29;20036;-89
2021/10/20 01:00:48;;;;;;;7.35;4.35;;;;;;;;;;4881018;29;20561;-89
2021/10/20 01:03:14;;;;;;;4.22;2.60;;;;;;;;;;4897385;29;20032;-90
2021/10/20 01:05:40;;;;;;;6.82;3.78;;;;;;;;;;4897070;29;20718;-90
2021/10/20 01:08:06;;;;;;;6.88;3.47;;;;;;;;;;4880381;29;20143;-89
2021/10/20 01:10:32;;;;;;;6.70;2.95;;;;;;;;;;4896889;29;20051;-90
2021/10/20 01:12:58;;;;;;;6.00;3.53;;;;;;;;;;4880361;29;20197;-89
2021/10/20 01:15:26;;;;;;;8.68;4.05;;;13.80;77.10;;;;;;4881324;29;20118;-89
2021/10/20 01:17:53;;;;;;;5.63;3.60;;;;;;;;;;4895846;29;20136;-89
2021/10/20 01:20:23;;;;;;;10.20;3.88;;;13.80;76.10;;;;;;4889203;29;20044;-89
2021/10/20 01:22:49;;;;;;;6.90;3.85;;;;;;;;;;4895551;29;20048;-89
2021/10/20 01:25:15;;;;;;;9.30;4.40;;;;;;;;;;4891382;29;20992;-91
2021/10/20 01:27:42;;;;;;;9.48;3.72;;;13.80;76.60;;;;;;4896289;29;20119;-88
2021/10/20 01:30:08;;;;;;;5.73;3.17;;;;;;;;;;4897124;29;20410;-90
2021/10/20 01:32:34;;;;;;;9.68;3.10;;;;;;;;;;4896957;29;20039;-90
2021/10/20 01:35:01;;;;;;;5.47;2.92;;;;;;;;;;4896065;29;20033;-89
2021/10/20 01:37:27;;;;;;;7.35;3.08;;;;;;;;;;4884314;29;20040;-89
2021/10/20 01:39:56;;;;;;;5.18;3.80;;;;;;;;;;4881386;29;20029;-90
2021/10/20 01:42:23;;;;;;;7.57;3.42;;;;;;;;;;4878313;29;20049;-90
2021/10/20 01:44:49;;;;;;;7.30;3.05;;;;;;;;;;4892469;29;20035;-89
2021/10/20 01:47:15;;;;;;;8.38;2.85;;;;;;;;;;4896335;29;20498;-88
2021/10/20 01:49:41;;;;;;;13.00;2.92;;;;;;;;;;4895696;29;20036;-88
2021/10/20 01:52:07;;;;;;;4.47;3.03;;;;;;;;;;4894685;29;20029;-90
2021/10/20 01:54:33;;;;;;;4.97;3.45;;;;;;;;;;4879523;29;20025;-89
2021/10/20 01:56:59;;;;;;;8.88;3.60;;;;;;;;;;4878014;29;20033;-89
2021/10/20 01:59:25;;;;;;;5.72;3.40;;;;;;;;;;4893703;29;20043;-89
2021/10/20 02:01:51;;;;;;;8.65;4.00;;;;;;;;;;4886213;29;20056;-89
2021/10/20 02:04:17;;;;;;;7.25;3.65;;;;;;;;;;4896161;29;20055;-90
2021/10/20 02:06:43;;;;;;;6.88;3.05;;;;;;;;;;4896059;29;21277;-90
2021/10/20 02:09:11;;;;;;;4.78;3.05;;;14.20;79.20;;;;;;4883780;29;20025;-89
2021/10/20 02:11:37;;;;;;;;;;;14.30;80.40;;;;;;4879907;29;20028;-89
2021/10/20 02:14:07;;;;;;;3.78;2.70;;;14.40;81.00;;;;;;4886519;29;20274;-89
2021/10/20 02:16:33;;;;;;;3.83;2.40;;;;;;;;;;4881435;29;20033;-90
2021/10/20 02:18:59;;;;;;;4.65;2.10;;;;;;;;;;4894648;29;20032;-88
2021/10/20 02:21:25;;;;;;;3.25;1.98;;;;;;;;;;4877512;29;20057;-89
2021/10/20 02:23:51;;;;;;;5.32;2.67;;;;;;;;;;4895108;29;20028;-89
2021/10/20 02:26:17;;;;;;;4.68;2.72;;;;;;;;;;4882555;29;20028;-89
2021/10/20 02:28:43;;;;;;;4.88;2.33;;;;;;;;;;4897279;29;20028;-89
2021/10/20 02:31:09;;;;;;;6.50;2.78;;;;;;;;;;4893815;29;20665;-89
2021/10/20 02:33:35;;;;;;;4.38;2.63;;;;;;;;;;4878604;29;20041;-89
2021/10/20 02:36:01;;;;;;;4.57;3.30;;;;;;;;;;4896032;29;20025;-88
2021/10/20 02:38:27;;;;;;;3.78;2.05;;;;;;;;;;4877996;29;20047;-89
2021/10/20 02:40:53;;;;;;;5.78;2.70;;;;;;;;;;4895946;29;20107;-90
2021/10/20 02:43:19;;;;;;;2.33;2.10;;;;;;;;;;4895711;29;20054;-90
2021/10/20 02:45:45;;;;;;;6.18;1.80;;;;;;;;;;4878943;29;20473;-89
2021/10/20 02:48:11;;;;;;;4.75;2.17;;;;;;;;;;4877274;29;20048;-89
2021/10/20 02:50:37;;;;;;;3.22;2.05;;;;;;;;;;4880455;29;20025;-90
2021/10/20 02:53:04;;;;;;;3.33;2.53;;;;;;;;;;4890045;29;20056;-90
2021/10/20 02:55:30;;;;;;;4.70;2.38;;;;;;;;;;4895977;29;20060;-89
2021/10/20 02:57:56;;;;;;;4.22;2.13;;;15.30;79.50;;;;;;4878769;29;20037;-88
2021/10/20 03:00:23;;;;;;;4.00;1.97;;;;;;;;;;4895256;29;20043;-90
2021/10/20 03:02:49;;;;;;;6.18;2.13;;;;;;;;;;4895404;29;20028;-89
2021/10/20 03:05:15;;;;;;;3.33;1.77;;;;;;;;;;4895112;29;20405;-89
2021/10/20 03:07:48;;;;;;;3.13;1.98;;;15.30;79.30;;;;;;4891060;29;20037;-90
2021/10/20 03:10:15;;;;;;;3.03;1.80;;;;;;;;;;4892174;29;20041;-90
2021/10/20 03:12:41;;;;;;;3.30;1.85;;;;;;;;;;4893960;29;20027;-89
2021/10/20 03:15:07;;;;;;;2.03;1.65;;;;;;;;;;4895403;29;20521;-90
2021/10/20 03:17:33;;;;;;;2.25;1.65;;;;;;;;;;4894678;29;20024;-89
2021/10/20 03:19:59;;;;;;;2.78;1.60;;;;;;;;;;4888246;29;20052;-89
2021/10/20 03:22:25;;;;;;;3.30;2.15;;;;;;;;;;4885121;29;20109;-90
2021/10/20 03:24:51;;;;;;;7.75;2.25;;;;;;;;;;4894407;29;20045;-88
2021/10/20 03:27:19;;;;;;;3.28;1.90;;;;;;;;;;4891842;29;20676;-88
2021/10/20 03:29:45;;;;;;;3.17;2.33;;;;;;;;;;4879771;29;20028;-90
2021/10/20 03:32:11;;;;;;;3.30;2.20;;;;;;;;;;4893815;29;20521;-90
2021/10/20 03:34:37;;;;;;;4.50;2.47;;;;;;;;;;4891347;29;20029;-89
2021/10/20 03:37:03;;;;;;;3.75;2.17;;;;;;;;;;4880594;29;20025;-90
2021/10/20 03:39:29;;;;;;;3.10;2.13;;;;;;;;;;4879959;29;20033;-89
2021/10/20 03:41:55;;;;;;;2.83;1.98;;;;;;;;;;4875879;29;20513;-88
2021/10/20 03:44:21;;;;;;;3.47;2.15;;;;;;;;;;4882747;29;20033;-90
2021/10/20 03:46:47;;;;;;;2.58;1.60;;;;;;;;;;4897667;29;20043;-89
2021/10/20 03:49:12;;;;;;;8.95;2.05;;;;;;;;;;4881430;29;20021;-90
2021/10/20 03:51:38;;;;;;;2.33;1.63;;;;;;;;;;4898491;29;20116;-89
2021/10/20 03:54:05;;;;;;;3.05;2.03;;;;;;;;;;4899165;29;20036;-89
2021/10/20 03:56:30;;;;;;;3.08;1.60;;;;;;;;;;4896948;29;20021;-89
2021/10/20 03:58:56;;;;;;;8.45;1.60;;;;;;;;;;4879614;29;20124;-89
2021/10/20 04:01:22;;;;;;;2.13;1.70;;;;;;;;;;4898117;29;20021;-90
2021/10/20 04:03:48;;;;;;;2.40;1.95;;;;;;;;;;4897542;29;20047;-89
2021/10/20 04:06:14;;;;;;;4.75;1.98;;;;;;;;;;4898613;29;20116;-88
2021/10/20 04:08:40;;;;;;;4.18;2.40;;;;;;;;;;4893072;29;20041;-88
2021/10/20 04:11:06;;;;;;;3.08;2.28;;;;;;;;;;4898134;29;20032;-90
2021/10/20 04:13:32;;;;;;;3.67;1.70;;;;;;;;;;4897391;29;20051;-88
2021/10/20 04:15:58;;;;;;;4.75;1.48;;;;;;;;;;4898006;29;20165;-88
2021/10/20 04:18:24;;;;;;;2.60;1.65;;;;;;;;;;4896813;29;20079;-89
2021/10/20 04:20:50;;;;;;;3.33;2.30;;;;;;;;;;4899362;29;20521;-88
2021/10/20 04:23:16;;;;;;;5.68;1.75;;;;;;;;;;4897876;29;20138;-88
2021/10/20 04:25:42;;;;;;;8.75;1.85;;;;;;;;;;4893030;29;20046;-89
2021/10/20 04:28:09;;;;;;;2.50;1.58;;;;;;;;;;4897677;29;20092;-89
2021/10/20 04:30:35;;;;;;;2.60;1.43;;;;;;;;;;4880756;29;20060;-88
2021/10/20 04:33:01;;;;;;;3.47;1.48;;;;;;;;;;4880889;29;20029;-89
2021/10/20 04:35:27;;;;;;;2.30;1.70;;;;;;;;;;4897188;29;20061;-88
2021/10/20 04:37:53;;;;;;;2.25;1.73;;;;;;;;;;4897204;29;20423;-90
2021/10/20 04:40:19;;;;;;;2.30;1.67;;;;;;;;;;4893963;29;20028;-89
2021/10/20 04:42:45;;;;;;;2.30;1.77;;;;;;;;;;4880611;29;20028;-90
2021/10/20 04:45:11;;;;;;;3.53;1.63;;;;;;;;;;4880437;29;20038;-90
2021/10/20 04:47:37;;;;;;;2.20;1.65;;;;;;;;;;4896728;29;20103;-88
2021/10/20 04:50:06;;;;;;;2.38;1.27;;;;;;;;;;4897135;29;20118;-89
2021/10/20 04:52:33;;;;;;;2.50;1.67;;;;;;;;;;4895323;29;20032;-89
2021/10/20 04:54:59;;;;;;;2.63;2.00;;;;;;;;;;4882030;29;20036;-88
2021/10/20 04:57:25;;;;;;;8.50;1.80;;;;;;;;;;4896944;29;20277;-89
2021/10/20 04:59:51;;;;;;;1.77;1.35;;;;;;;;;;4880632;29;20403;-89
2021/10/20 05:02:17;;;;;;;1.65;1.45;;;;;;;;;;4880266;29;20123;-89
2021/10/20 05:04:43;;;;;;;1.55;1.38;;;;;;;;;;4889719;29;20080;-89
2021/10/20 05:07:11;;;;;;;2.25;1.33;;;;;;;;;;4881539;29;20055;-90
2021/10/20 05:09:37;;;;;;;2.08;1.05;;;;;;;;;;4893531;29;20036;-89
2021/10/20 05:12:04;;;;;;;1.25;1.08;;;;;;;;;;4897385;29;20037;-90
2021/10/20 05:14:29;;;;;;;2.45;1.55;;;;;;;;;;4882586;29;20078;-88
2021/10/20 05:16:55;;;;;;;1.90;1.48;;;;;;;;;;4897806;29;20075;-90
2021/10/20 05:19:21;;;;;;;5.55;1.63;;;;;;;;;;4893711;29;20040;-91
2021/10/20 05:21:47;;;;;;;1.85;1.25;;;;;;;;;;4891382;29;20822;-90
2021/10/20 05:24:13;;;;;;;7.38;1.05;;;;;;;;;;4896550;29;20104;-89
2021/10/20 05:26:39;;;;;;;2.33;1.70;;;;;;;;;;4879043;29;20029;-90
2021/10/20 05:29:05;;;;;;;1.63;1.52;;;;;;;;;;4892927;29;20043;-89
2021/10/20 05:31:32;;;;;;;2.45;1.60;;;15.70;79.20;;;;;;4892632;29;20675;-89
2021/10/20 05:33:58;;;;;;;1.98;1.65;;;;;;;;;;4897946;29;20115;-89
2021/10/20 05:36:24;;;;;;;4.60;1.80;;;;;;;;;;4896183;29;20048;-90
2021/10/20 05:38:50;;;;;;;1.58;1.23;;;;;;;;;;4896147;29;20032;-91
2021/10/20 05:41:16;;;;;;;3.17;1.45;;;;;;;;;;4895690;29;20032;-89
2021/10/20 05:43:42;;;;;;;3.47;1.60;;;;;;;;;;4890699;29;20031;-91
2021/10/20 05:46:09;;;;;;;3.90;1.98;;;;;;;;;;4877550;29;20028;-89
2021/10/20 05:48:35;;;;;;;1.98;1.42;;;;;;;;;;4878865;29;20040;-88
2021/10/20 05:51:01;;;;;;;4.78;1.80;;;;;;;;;;4880379;29;20080;-90
2021/10/20 05:53:27;;;;;;;2.00;1.38;;;;;;;;;;4895857;29;20033;-91
2021/10/20 05:55:53;;;;;;;2.03;1.30;;;;;;;;;;4895824;29;20111;-90
2021/10/20 05:58:19;;;;;;;6.07;1.83;;;;;;;;;;4890911;29;20494;-90
2021/10/20 06:00:45;;;;;;;2.05;1.38;;;;;;;;;;4885850;29;20125;-88
2021/10/20 06:03:11;;;;;;;1.85;1.38;;;;;;;;;;4895997;29;20051;-91
2021/10/20 06:05:37;;;;;;;2.15;1.10;;;;;;;;;;4895449;29;20502;-89
2021/10/20 06:08:03;;;;;;;3.85;1.10;;;;;;;;;;4878846;29;20680;-89
2021/10/20 06:10:29;;;;;;;3.03;1.10;;;;;;;;;;4876663;29;20036;-90
2021/10/20 06:12:56;;;;;;;3.65;1.10;;;;;;;;;;4872099;29;20060;-88
2021/10/20 06:15:23;;;;;;;1.60;1.45;;;;;;;;;;4876874;29;20059;-91
2021/10/20 06:17:49;;;;;;;2.00;1.25;;;;;;;;;;4869193;29;20070;-89
2021/10/20 06:20:16;;;;;;;2.65;1.50;;;16.50;74.30;;;;;;4877982;29;20423;-89
2021/10/20 06:22:42;;;;;;;2.95;1.75;;;;;;;;;;4896042;29;20033;-90
2021/10/20 06:25:13;;;;;;;2.60;1.42;;;;;;;;;;4893822;29;20032;-91
2021/10/20 06:27:40;;;;;;;2.08;1.40;;;;;;;;;;4890538;29;20048;-90
2021/10/20 06:30:06;;;;;;;2.92;1.08;;;;;;;;;;4912139;29;20032;-90
2021/10/20 06:32:33;;;;;;;4.47;1.45;;;16.70;73.20;;;;;;4897738;29;20031;-91
2021/10/20 06:34:59;;;;;;;8.00;1.48;;;;;;;;;;4893944;29;20029;-91
2021/10/20 06:37:27;;;;;;;1.60;1.08;;;;;;;;;;4897731;29;20314;-91
2021/10/20 06:39:53;;;;;;;2.33;1.83;;;;;;;;;;4886126;29;20040;-91
2021/10/20 06:42:19;;;;;;;1.85;1.08;;;;;;;;;;4893300;29;20111;-89
2021/10/20 06:44:45;;;;;;;2.35;1.83;;;;;;;;;;4893657;29;20124;-90
2021/10/20 06:47:11;;;;;;;2.60;1.70;;;;;;;;;;4896049;29;20510;-91
2021/10/20 06:49:37;;;;;;;1.88;1.67;;;;;;;;;;4885457;29;20029;-91
2021/10/20 06:52:03;;;;;;;2.55;1.65;;;;;;;;;;4882328;29;20104;-90
2021/10/20 06:54:29;;;;;;;2.78;1.55;;;;;;;;;;4895366;29;20035;-90
2021/10/20 06:56:55;;;;;;;0.88;0.88;;;;;;;;;;4895868;29;20402;-91
2021/10/20 06:59:21;;;;;;;1.98;1.35;;;;;;;;;;4895457;29;20123;-90
2021/10/20 07:01:47;;;;;;;3.05;1.63;;;;;;;;;;4887859;29;20115;-90
2021/10/20 07:04:13;;;;;;;3.10;1.10;;;;;;;;;;4895517;29;20036;-90
2021/10/20 07:06:39;;;;;;;2.00;1.10;;;;;;;;;;4894832;29;20056;-90
2021/10/20 07:09:05;;;;;;;2.15;1.20;;;;;;;;;;4898435;29;20045;-91
2021/10/20 07:11:32;;;;;;;2.35;1.30;;;;;;;;;;4890285;29;20539;-91
2021/10/20 07:13:58;;;;;;;1.58;1.17;;;;;;;;;;4897578;29;20067;-90
2021/10/20 07:16:24;;;;;;;2.13;1.27;;;;;;;;;;4896178;29;20234;-91
2021/10/20 07:18:50;;;;;;;1.48;0.95;;;;;;;;;;4895441;29;20028;-93
2021/10/20 07:21:17;;;;;;;1.92;1.15;;;;;;;;;;4879664;29;20064;-92
2021/10/20 07:23:43;;;;;;;1.13;0.75;;;;;;;;;;4898172;29;20036;-91
2021/10/20 07:26:09;;;;;;;1.63;0.90;;;;;;;;;;4891946;29;20092;-93
2021/10/20 07:28:35;;;;;;;2.10;1.52;;;;;;;;;;4897626;29;20387;-92
2021/10/20 07:31:01;;;;;;;0.85;0.80;;;;;;;;;;4895590;29;20029;-92
2021/10/20 07:33:27;;;;;;;3.20;1.02;;;;;;;;;;4899980;29;20028;-93
2021/10/20 07:35:53;;;;;;;1.10;0.90;;;;;;;;;;4886808;29;20112;-93
2021/10/20 07:38:19;;;;;;;0.90;0.60;;;;;;;;;;4901833;29;20040;-93
2021/10/20 07:40:45;;;;;;;2.28;1.00;;;;;;;;;;4895825;29;20036;-92
2021/10/20 07:43:11;;;;;;;2.93;0.50;;;;;;;;;;4895543;29;20029;-92
2021/10/20 07:45:37;;;;;;;1.30;0.50;;;;;;;;;;4896943;29;20073;-92
2021/10/20 07:48:04;;;;;;;2.97;0.67;;;27.10;43.20;;;;;;4892197;29;20044;-91
2021/10/20 07:50:32;;;;;;;3.15;0.50;;;;;;;;;;4891488;29;20333;-92
2021/10/20 07:52:58;;;;;;;3.45;0.60;;;;;;;;;;4897319;29;20037;-91
2021/10/20 07:55:24;;;;;;;1.27;0.70;;;;;;;;;;4891129;29;20025;-90
2021/10/20 07:57:50;;;;;;;1.60;0.63;;;;;;;;;;4899007;29;20053;-91
2021/10/20 08:00:17;;;;;;;1.00;0.60;;;25.30;45.40;;;;;;4884476;29;20485;-91
2021/10/20 08:02:43;;;;;;;1.20;0.70;;;;;;;;;;4887121;29;20565;-90
2021/10/20 08:05:14;;;;;;;1.15;0.60;;;;;;;;;;4894381;29;20029;-90
2021/10/20 08:07:51;;;;;;;2.35;0.85;;;;;;;;;;4898250;29;20036;-90
2021/10/20 08:10:28;;;;;;;1.20;0.60;;;23.50;51.50;;;;;;4898568;29;20447;-90
2021/10/20 08:12:56;;;;;;;1.92;1.17;;;23.40;52.00;;;;;;4896152;29;20068;-91
2021/10/20 08:15:23;;;;;;;5.03;1.52;;;;;;;;;;4863240;29;20029;-91
2021/10/20 08:17:49;;;;;;;2.03;1.07;;;;;;;;;;4890601;29;20580;-89
2021/10/20 08:20:18;;;;;;;2.30;1.00;;;23.70;51.70;;;;;;4895802;29;20393;-94
2021/10/20 08:22:44;;;;;;;1.17;0.80;;;;;;;;;;4902680;29;20406;-92
2021/10/20 08:25:11;;;;;;;0.87;0.60;;;;;;;;;;4886240;29;20490;-91
2021/10/20 08:27:37;;;;;;;5.10;1.33;;;22.80;53.50;;;;;;4907017;29;20044;-92
2021/10/20 08:30:04;;;;;;;2.20;1.30;;;;;;;;;;4898924;29;20029;-89
2021/10/20 08:32:30;;;;;;;1.13;0.70;;;;;;;;;;4892076;29;20041;-90
2021/10/20 08:34:56;;;;;;;5.10;0.90;;;;;;;;;;4896184;29;20223;-90
2021/10/20 08:37:22;;;;;;;0.95;0.65;;;;;;;;;;4900437;29;20383;-90
2021/10/20 08:39:48;;;;;;;1.63;1.00;;;;;;;;;;4879331;29;20033;-92
2021/10/20 08:42:15;;;;;;;2.65;1.10;;;;;;;;;;4878608;29;20093;-92
2021/10/20 08:44:41;;;;;;;2.33;0.75;;;;;;;;;;4898338;29;20025;-93
2021/10/20 08:47:11;;;;;;;2.05;1.10;;;;;;;;;;4881033;29;20548;-92
2021/10/20 08:49:39;;;;;;;1.95;0.88;;;24.60;50.40;;;;;;4898212;29;20053;-91
2021/10/20 08:52:05;;;;;;;2.33;0.88;;;24.40;49.40;;;;;;4898833;29;20135;-92
2021/10/20 08:54:31;;;;;;;1.58;1.48;;;;;;;;;;4897751;29;20024;-93
2021/10/20 08:56:58;;;;;;;1.95;0.90;;;;;;;;;;4880329;29;20026;-94
2021/10/20 08:59:24;;;;;;;1.23;0.70;;;;;;;;;;4878737;29;20044;-93
2021/10/20 09:01:50;;;;;;;1.15;0.73;;;;;;;;;;4881066;29;20486;-92
2021/10/20 09:04:19;;;;;;;1.10;0.75;;;;;;;;;;4885033;29;20402;-92
2021/10/20 09:06:45;;;;;;;2.15;0.98;;;;;;;;;;4897317;29;20036;-96
2021/10/20 09:09:13;;;;;;;1.88;0.68;;;;;;;;;;4898486;29;20516;-95
2021/10/20 09:11:40;;;;;;;3.97;0.60;;;;;;;;;;4906316;29;20039;-95
2021/10/20 09:14:07;;;;;;;1.05;0.82;;;;;;;;;;4888265;29;20039;-94
2021/10/20 09:16:35;;;;;;;0.95;0.55;;;23.70;51.20;;;;;;4889000;29;20032;-93
2021/10/20 09:19:31;;;;;;;1.70;0.98;;;23.80;50.90;;;;;;4884643;29;20064;-95
2021/10/20 09:21:59;;;;;;;3.20;0.88;;;23.90;51.20;;;;;;4899326;29;20059;-95
2021/10/20 09:24:29;;;;;;;;;;;24.00;51.20;;;;;;4887151;29;20127;-95
2021/10/20 09:26:58;;;;;;;2.08;0.85;;;23.90;51.40;;;;;;4898176;29;20443;-94
2021/10/20 09:29:28;;;;;;;2.40;1.13;;;23.80;52.00;;;;;;4874330;29;20036;-93
2021/10/20 09:31:55;;;;;;;2.47;0.85;;;;;;;;;;4887091;29;20035;-93
2021/10/20 09:34:21;;;;;;;1.35;0.70;;;;;;;;;;4895623;29;20039;-95
2021/10/20 09:37:00;;;;;;;1.60;0.70;;;23.90;51.50;;;;;;4893448;29;20037;-96
2021/10/20 09:39:26;;;;;;;1.20;0.95;;;;;;;;;;4893847;29;20021;-92
2021/10/20 09:41:56;;;;;;;1.73;0.90;;;23.50;52.40;;;;;;4898709;29;20041;-95
2021/10/20 09:44:22;;;;;;;0.88;0.77;;;;;;;;;;4896432;29;20021;-94
2021/10/20 09:46:48;;;;;;;2.28;0.95;;;;;;;;;;4894310;29;20039;-93
2021/10/20 09:54:27;;;;;;;2.50;1.42;;;;;;;;;;5097233;23;20065;-94
2021/10/20 09:56:57;;;;;;;3.55;1.17;;;;;;;;;;4898223;29;20033;-91
2021/10/20 09:59:24;;;;;;;4.63;1.30;;;;;;;;;;4893461;29;20025;-96
2021/10/20 10:01:50;;;;;;;1.92;0.90;;;;;;;;;;4897406;29;20032;-94
2021/10/20 10:04:17;;;;;;;1.33;1.02;;;;;;;;;;4897734;29;20124;-94
2021/10/20 10:06:43;;;;;;;6.80;3.53;;;;;;;;;;4897446;29;20045;-92
2021/10/20 10:09:10;;;;;;;2.63;1.08;;;;;;;;;;4881388;29;20036;-93
2021/10/20 10:11:38;;;;;;;4.45;1.00;;;;;;;;;;4897458;29;20044;-92
2021/10/20 10:14:04;;;;;;;1.13;0.93;;;;;;;;;;4897529;29;20036;-93
2021/10/20 10:16:32;;;;;;;1.63;0.88;;;;;;;;;;4898049;29;20035;-94
2021/10/20 10:19:00;;;;;;;1.60;0.95;;;22.90;54.50;;;;;;4896706;29;20060;-95
2021/10/20 10:21:43;;;;;;;1.83;1.10;;;;;;;;;;4879055;29;20044;-94
2021/10/20 10:24:16;;;;;;;1.20;0.82;;;;;;;;;;4892252;29;20471;-92
2021/10/20 10:27:00;;;;;;;7.70;1.23;;;;;;;;;;4894476;29;20036;-93
2021/10/20 10:29:26;;;;;;;1.30;0.52;;;;;;;;;;4894844;29;20055;-92
2021/10/20 10:31:52;;;;;;;2.85;1.40;;;;;;;;;;4911791;29;20125;-93
2021/10/20 10:34:38;;;;;;;1.90;1.10;;;22.00;76.20;;;;;;4894023;29;20037;-92
2021/10/20 10:37:05;;;;;;;2.75;1.27;;;;;;;;;;4893725;29;20277;-93
2021/10/20 10:39:33;;;;;;;3.22;1.30;;;22.00;57.70;;;;;;4897850;29;20040;-96
2021/10/20 10:42:00;;;;;;;1.45;0.80;;;;;;;;;;4888375;29;20025;-91
2021/10/20 10:44:29;;;;;;;3.70;0.95;;;22.20;57.20;;;;;;4899550;29;20033;-90
2021/10/20 10:46:55;;;;;;;2.15;0.90;;;;;;;;;;4898109;29;20079;-94
2021/10/20 10:49:25;;;;;;;1.15;0.90;;;22.10;56.20;;;;;;4899780;29;20024;-94
2021/10/20 10:52:20;;;;;;;1.02;0.80;;;21.80;56.60;;;;;;4893943;29;20057;-89
2021/10/20 10:55:01;;;;;;;0.60;0.60;;;;;;;;;;4877350;29;20591;-88
2021/10/20 10:57:39;;;;;;;3.75;0.73;;;;;;;;;;4898629;29;20061;-91
2021/10/20 11:00:05;;;;;;;1.75;0.88;;;;;;;;;;4877883;29;20031;-93
2021/10/20 11:02:52;;;;;;;2.75;1.27;;;;;;;;;;4889186;29;20029;-91
2021/10/20 11:05:25;;;;;;;0.98;0.88;;;21.30;78.40;;;;;;4880015;29;20088;-90
2021/10/20 11:07:59;;;;;;;2.42;1.30;;;21.20;59.10;;;;;;4890879;29;20064;-92
2021/10/20 11:10:25;;;;;;;1.35;0.57;;;;;;;;;;4871061;29;20124;-91
2021/10/20 11:12:55;;;;;;;1.95;0.73;;;21.10;59.60;;;;;;4883722;29;20036;-93
2021/10/20 11:15:21;;;;;;;0.77;0.52;;;;;;;;;;4893775;29;20123;-93
2021/10/20 11:17:47;;;;;;;1.35;0.95;;;;;;;;;;4879482;29;20406;-94
2021/10/20 11:20:19;;;;;;;1.65;1.38;;;21.00;60.20;;;;;;4879881;29;20498;-93
2021/10/20 11:22:50;;;;;;;1.33;0.60;;;21.00;59.60;;;;;;4896624;29;20033;-93
2021/10/20 11:25:17;;;;;;;1.77;0.77;;;21.00;60.50;;;;;;4900082;29;20079;-93
2021/10/20 11:27:51;;;;;;;0.88;0.73;;;21.00;60.60;;;;;;4881639;29;20045;-93
2021/10/20 11:30:19;;;;;;;2.28;0.70;;;21.00;60.10;;;;;;4900059;29;20028;-94
2021/10/20 11:32:46;;;;;;;0.90;0.70;;;21.00;60.90;;;;;;4882158;29;20100;-94
2021/10/20 11:35:23;;;;;;;1.00;0.90;;;21.00;61.10;;;;;;4878821;29;20021;-93
2021/10/20 11:37:52;;;;;;;0.70;0.60;;;;;;;;;;4882803;29;20041;-95
2021/10/20 11:40:18;;;;;;;0.93;0.60;;;;;;;;;;4899890;29;20112;-93
2021/10/20 11:42:44;;;;;;;0.88;0.88;;;;;;;;;;4898976;29;20037;-94
2021/10/20 11:45:10;;;;;;;3.50;0.75;;;;;;;;;;4897562;29;20024;-92
2021/10/20 11:47:40;;;;;;;1.98;0.90;;;;;;;;;;4867769;29;20090;-95
2021/10/20 11:50:07;;;;;;;1.30;0.82;;;;;;;;;;4899340;29;20035;-93
2021/10/20 11:52:34;;;;;;;16.42;1.20;;;;;;;;;;4914044;29;20135;-93
2021/10/20 11:55:00;;;;;;;0.85;0.57;;;;;;;;;;4898907;29;20125;-93
2021/10/20 11:57:27;;;;;;;1.10;0.50;;;;;;;;;;4899484;29;20099;-92
2021/10/20 11:59:53;;;;;;;0.93;0.50;;;;;;;;;;4897990;29;20056;-93
2021/10/20 12:02:19;;;;;;;2.20;0.75;;;;;;;;;;4899421;29;20088;-92
2021/10/20 12:04:45;;;;;;;5.38;1.05;;;;;;;;;;4899862;29;20490;-94
2021/10/20 12:07:15;;;;;;;0.73;0.60;;;20.30;62.50;;;;;;4902052;29;20041;-94
2021/10/20 12:09:44;;;;;;;1.25;0.70;;;20.20;62.80;;;;;;4900596;29;20021;-92
2021/10/20 12:12:13;;;;;;;0.40;0.40;;;;;;;;;;4898819;29;20036;-94
2021/10/20 12:14:41;;;;;;;0.82;0.60;;;20.20;62.80;;;;;;4889628;29;20031;-91
2021/10/20 12:17:08;;;;;;;1.65;0.63;;;20.10;62.90;;;;;;4898693;29;20040;-90
2021/10/20 12:19:36;;;;;;;1.65;0.63;;;20.10;63.00;;;;;;4891598;29;20025;-94
2021/10/20 12:22:06;;;;;;;16.40;2.25;;;20.00;63.30;;;;;;4873847;29;20040;-92
2021/10/20 12:24:34;;;;;;;1.48;0.73;;;20.00;63.00;;;;;;4885285;29;20033;-92
2021/10/20 12:27:01;;;;;;;2.75;0.57;;;;;;;;;;4885003;29;20033;-90
2021/10/20 12:29:28;;;;;;;0.40;0.40;;;;;;;;;;4893065;29;20040;-89
2021/10/20 12:31:58;;;;;;;1.10;1.00;;;19.90;62.80;;;;;;4897598;29;20041;-91
2021/10/20 12:34:27;;;;;;;1.20;0.68;;;;;;;;;;4899804;29;20113;-90
2021/10/20 12:36:53;;;;;;;0.77;0.60;;;;;;;;;;4887557;29;20044;-90
2021/10/20 12:39:20;;;;;;;0.82;0.65;;;;;;;;;;4892767;29;20024;-89
2021/10/20 12:41:47;;;;;;;0.45;0.45;;;19.80;63.00;;;;;;4896947;29;20060;-89
2021/10/20 12:44:13;;;;;;;0.75;0.52;;;;;;;;;;4889768;29;20536;-88
2021/10/20 12:46:43;;;;;;;1.50;0.80;;;;;;;;;;4886006;29;20033;-88
2021/10/20 12:49:10;;;;;;;0.70;0.60;;;;;;;;;;4879504;29;20054;-90
2021/10/20 12:51:38;;;;;;;0.85;0.55;;;19.70;62.80;;;;;;4897409;29;20028;-92
2021/10/20 12:54:05;;;;;;;0.65;0.40;;;;;;;;;;4881449;29;20151;-93
2021/10/20 12:56:32;;;;;;;0.50;0.40;;;;;;;;;;4880644;29;20217;-92
2021/10/20 12:59:04;;;;;;;0.30;0.30;;;;;;;;;;4888805;29;20033;-90
2021/10/20 13:01:30;;;;;;;1.65;0.40;;;;;;;;;;4895190;29;20033;-93
2021/10/20 13:03:56;;;;;;;0.70;0.60;;;;;;;;;;4881352;29;20044;-89
2021/10/20 13:06:22;;;;;;;0.85;0.52;;;;;;;;;;4878384;29;20033;-92
2021/10/20 13:08:50;;;;;;;0.30;0.30;;;;;;;;;;4898252;29;20036;-90
2021/10/20 13:11:16;;;;;;;1.35;0.75;;;;;;;;;;4895158;29;20033;-92
2021/10/20 13:13:42;;;;;;;0.95;0.43;;;;;;;;;;4895367;29;20029;-91
2021/10/20 13:16:08;;;;;;;2.15;0.73;;;;;;;;;;4884941;29;20390;-90
2021/10/20 13:18:34;;;;;;;0.30;0.30;;;;;;;;;;4897551;29;20025;-89
2021/10/20 13:21:01;;;;;;;1.13;0.98;;;;;;;;;;4897630;29;20032;-93
2021/10/20 13:23:33;;;;;;;0.93;0.73;;;;;;;;;;4897891;29;20048;-92
2021/10/20 13:25:59;;;;;;;0.57;0.50;;;;;;;;;;4893840;29;20045;-91
2021/10/20 13:28:25;;;;;;;3.72;1.10;;;;;;;;;;4911776;29;20096;-93
2021/10/20 13:30:51;;;;;;;1.88;1.38;;;;;;;;;;4883859;29;20088;-93
2021/10/20 13:33:18;;;;;;;1.67;0.60;;;;;;;;;;4895888;29;20058;-92
2021/10/20 13:35:44;;;;;;;0.70;0.63;;;;;;;;;;4897192;29;20033;-94
2021/10/20 13:38:10;;;;;;;0.65;0.65;;;;;;;;;;4870112;29;20040;-91
2021/10/20 13:40:37;;;;;;;2.28;0.90;;;19.90;63.00;;;;;;4891902;29;20053;-91
2021/10/20 13:43:04;;;;;;;1.10;0.68;;;19.90;63.30;;;;;;4883569;29;20863;-93
2021/10/20 13:45:31;;;;;;;1.30;0.80;;;;;;;;;;4893725;29;20028;-93
2021/10/20 13:47:57;;;;;;;1.17;0.60;;;;;;;;;;4890114;29;20104;-94
2021/10/20 13:50:23;;;;;;;1.88;1.40;;;;;;;;;;4892825;29;20025;-92
2021/10/20 13:52:49;;;;;;;1.60;0.80;;;;;;;;;;4895486;29;20056;-91
2021/10/20 13:55:17;;;;;;;2.55;0.73;;;;;;;;;;4885101;29;20185;-90
2021/10/20 13:57:43;;;;;;;0.88;0.73;;;20.30;61.60;;;;;;4895517;29;20039;-90
2021/10/20 14:00:10;;;;;;;0.98;0.73;;;;;;;;;;4896043;29;20031;-92
2021/10/20 14:02:36;;;;;;;6.40;0.77;;;;;;;;;;4892376;29;20141;-90
2021/10/20 14:05:02;;;;;;;2.08;0.80;;;;;;;;;;4888897;29;20043;-91
2021/10/20 14:07:28;;;;;;;7.30;0.77;;;;;;;;;;4884919;29;20571;-90
2021/10/20 14:09:55;;;;;;;1.95;1.15;;;;;;;;;;4892671;29;20033;-91
2021/10/20 14:12:21;;;;;;;0.70;0.70;;;;;;;;;;4895983;29;20052;-91
2021/10/20 14:14:48;;;;;;;1.20;1.10;;;;;;;;;;4893104;29;20033;-92
2021/10/20 14:17:15;;;;;;;25.75;1.85;;;;;;;;;;4890162;29;20040;-94
2021/10/20 14:19:41;;;;;;;;;;;20.30;61.30;;;;;;4880778;29;20029;-92
2021/10/20 14:22:07;;;;;;;2.92;1.25;;;;;;;;;;4876518;29;19908;-88
2021/10/20 14:24:33;;;;;;;1.70;0.98;;;;;;;;;;4910841;29;20088;-91
2021/10/20 14:26:59;;;;;;;0.50;0.47;;;;;;;;;;4896007;29;20100;-89
2021/10/20 14:29:25;;;;;;;1.17;0.70;;;;;;;;;;4896075;29;20041;-90